Time;durP1;ratioP1;P1;durP2;ratioP2;P2;SDS_P1;SDS_P2;PMS_P1;PMS_P2;Temp;Humidity;BMP_temperature;BMP_pressure;BME280_temperature;BME280_humidity;BME280_pressure;Samples;Min_cycle;Max_cycle;Signal;HPM_P1;HPM_P2
2022/01/11 00:00:11;;;;;;;54.58;27.83;;;1.90;99.90;;;;;;5030330;28;20029;-59
2022/01/11 00:02:41;;;;;;;53.38;26.75;;;1.90;99.90;;;;;;5030320;28;20025;-59
2022/01/11 00:05:08;;;;;;;60.55;29.38;;;1.80;99.90;;;;;;5046036;28;20068;-59
2022/01/11 00:07:35;;;;;;;53.90;29.15;;;1.80;99.90;;;;;;5030306;28;20499;-59
2022/01/11 00:10:06;;;;;;;59.38;28.17;;;1.80;99.90;;;;;;5030307;28;20061;-59
2022/01/11 00:12:31;;;;;;;51.13;26.02;;;1.80;99.90;;;;;;5030253;28;20434;-59
2022/01/11 00:14:57;;;;;;;56.80;27.60;;;1.80;99.90;;;;;;5029868;28;20027;-59
2022/01/11 00:17:23;;;;;;;54.20;28.73;;;1.70;99.90;;;;;;5045411;28;20021;-59
2022/01/11 00:19:49;;;;;;;55.50;27.27;;;1.70;99.90;;;;;;5030262;28;20120;-59
2022/01/11 00:22:19;;;;;;;56.78;27.40;;;1.70;99.90;;;;;;5046054;28;20075;-59
2022/01/11 00:24:44;;;;;;;55.78;27.58;;;1.70;99.90;;;;;;5045958;28;20018;-59
2022/01/11 00:27:11;;;;;;;64.68;28.40;;;1.70;99.90;;;;;;5030171;28;20053;-59
2022/01/11 00:29:42;;;;;;;52.30;26.77;;;1.70;99.90;;;;;;5045547;28;20061;-59
2022/01/11 00:32:13;;;;;;;58.85;29.60;;;1.70;99.90;;;;;;5045829;28;20056;-59
2022/01/11 00:34:50;;;;;;;54.15;27.75;;;1.70;99.90;;;;;;5030508;28;20526;-59
2022/01/11 00:37:18;;;;;;;56.03;27.27;;;1.70;99.90;;;;;;5030206;28;20022;-59
2022/01/11 00:39:45;;;;;;;59.88;29.55;;;1.70;99.90;;;;;;5029585;28;20038;-59
2022/01/11 00:42:13;;;;;;;55.10;28.48;;;1.60;99.90;;;;;;5029608;28;20105;-59
2022/01/11 00:44:38;;;;;;;56.00;28.20;;;1.70;99.90;;;;;;5030190;28;20078;-59
2022/01/11 00:47:04;;;;;;;61.67;28.55;;;1.70;99.90;;;;;;5029955;28;20441;-59
2022/01/11 00:49:32;;;;;;;53.05;27.83;;;1.60;99.90;;;;;;5029002;28;20422;-59
2022/01/11 00:51:58;;;;;;;59.40;29.67;;;1.60;99.90;;;;;;5029975;28;20017;-59
2022/01/11 00:54:23;;;;;;;57.80;27.77;;;1.60;99.90;;;;;;5030379;28;20021;-59
2022/01/11 00:56:49;;;;;;;57.58;27.40;;;1.60;99.90;;;;;;5030162;28;20021;-59
2022/01/11 00:59:15;;;;;;;60.90;29.23;;;1.60;99.90;;;;;;5029995;28;20510;-59
2022/01/11 01:01:40;;;;;;;59.53;28.67;;;1.60;99.90;;;;;;5029840;28;20026;-59
2022/01/11 01:04:07;;;;;;;55.17;28.15;;;1.60;99.90;;;;;;5030327;28;20043;-60
2022/01/11 01:06:34;;;;;;;62.45;28.67;;;1.60;99.90;;;;;;5029651;28;20029;-60
2022/01/11 01:09:00;;;;;;;55.30;27.73;;;1.60;99.90;;;;;;5030021;28;20080;-60
2022/01/11 01:11:25;;;;;;;58.97;27.73;;;1.70;99.90;;;;;;5029687;28;20498;-60
2022/01/11 01:13:51;;;;;;;59.30;27.95;;;1.70;99.90;;;;;;5032490;28;20025;-59
2022/01/11 01:16:17;;;;;;;53.75;28.10;;;1.70;99.90;;;;;;5033495;28;20017;-59
2022/01/11 01:18:43;;;;;;;57.33;26.73;;;1.60;99.90;;;;;;5034276;28;20036;-59
2022/01/11 01:21:09;;;;;;;52.30;26.42;;;1.60;99.90;;;;;;5034666;28;20572;-59
2022/01/11 01:23:35;;;;;;;54.22;27.10;;;1.60;99.90;;;;;;5033737;28;20033;-59
2022/01/11 01:26:01;;;;;;;53.22;25.67;;;1.60;99.90;;;;;;5033085;28;20045;-59
2022/01/11 01:28:27;;;;;;;52.25;26.08;;;1.60;99.90;;;;;;5048890;28;20029;-59
2022/01/11 01:30:55;;;;;;;54.08;26.48;;;1.50;99.90;;;;;;5033541;28;20473;-59
2022/01/11 01:33:21;;;;;;;50.72;24.50;;;1.50;99.90;;;;;;5033753;28;20530;-59
2022/01/11 01:35:53;;;;;;;49.72;25.50;;;1.60;99.90;;;;;;5033116;28;20064;-59
2022/01/11 01:38:24;;;;;;;48.17;23.27;;;1.60;99.90;;;;;;5033385;28;20032;-59
2022/01/11 01:40:52;;;;;;;49.40;23.83;;;1.60;99.90;;;;;;5033651;28;20471;-59
2022/01/11 01:43:18;;;;;;;51.17;24.52;;;1.60;99.90;;;;;;5033717;28;20079;-59
2022/01/11 01:45:44;;;;;;;45.15;23.23;;;1.50;99.90;;;;;;5033052;28;20025;-59
2022/01/11 01:48:12;;;;;;;49.75;23.95;;;1.50;99.90;;;;;;5033108;28;20028;-59
2022/01/11 01:50:38;;;;;;;44.70;23.20;;;1.50;99.90;;;;;;5033388;28;20211;-59
2022/01/11 01:53:07;;;;;;;49.78;24.90;;;1.50;99.90;;;;;;5033163;28;20091;-59
2022/01/11 01:55:33;;;;;;;50.17;25.05;;;1.40;99.90;;;;;;5033190;28;20152;-59
2022/01/11 01:57:59;;;;;;;46.47;24.05;;;1.40;99.90;;;;;;5032873;28;20013;-59
2022/01/11 02:00:28;;;;;;;44.50;23.80;;;1.50;99.90;;;;;;5032498;28;20037;-59
2022/01/11 02:03:11;;;;;;;43.78;23.52;;;1.50;99.90;;;;;;5032630;28;20025;-59
2022/01/11 02:05:39;;;;;;;45.25;24.73;;;1.50;99.90;;;;;;5032639;28;20056;-59
2022/01/11 02:08:07;;;;;;;44.33;23.15;;;1.50;99.90;;;;;;5031608;28;20425;-59
2022/01/11 02:10:34;;;;;;;42.70;22.45;;;1.50;99.90;;;;;;5032227;28;20037;-59
2022/01/11 02:13:03;;;;;;;48.58;23.10;;;1.50;99.90;;;;;;5047206;28;20032;-59
2022/01/11 02:15:28;;;;;;;47.72;23.20;;;1.50;99.90;;;;;;5031856;28;20028;-59
2022/01/11 02:17:54;;;;;;;47.30;23.63;;;1.50;99.90;;;;;;5032577;28;20018;-59
2022/01/11 02:20:20;;;;;;;45.67;21.83;;;1.50;99.90;;;;;;5032297;28;20475;-59
2022/01/11 02:22:46;;;;;;;50.22;24.17;;;1.50;99.90;;;;;;5047779;28;20479;-59
2022/01/11 02:25:11;;;;;;;43.75;22.33;;;1.50;99.90;;;;;;5032313;28;20029;-59
2022/01/11 02:27:37;;;;;;;42.25;21.90;;;1.50;99.90;;;;;;5032349;28;20104;-59
2022/01/11 02:30:04;;;;;;;45.33;22.05;;;1.40;99.90;;;;;;5031950;28;20021;-59
2022/01/11 02:32:30;;;;;;;48.00;22.98;;;1.50;99.90;;;;;;5031980;28;20092;-59
2022/01/11 02:34:55;;;;;;;39.65;20.20;;;1.40;99.90;;;;;;5032191;28;20021;-59
2022/01/11 02:37:21;;;;;;;45.90;23.67;;;1.50;99.90;;;;;;5031942;28;20537;-59
2022/01/11 02:39:47;;;;;;;43.28;22.45;;;1.50;99.90;;;;;;5032005;28;20029;-59
2022/01/11 02:42:13;;;;;;;43.05;22.42;;;1.40;99.90;;;;;;5032096;28;20040;-59
2022/01/11 02:44:39;;;;;;;39.75;18.48;;;1.40;99.90;;;;;;5031843;28;20383;-59
2022/01/11 02:47:05;;;;;;;41.45;21.20;;;1.40;99.90;;;;;;5031813;28;20037;-59
2022/01/11 02:49:31;;;;;;;45.90;22.83;;;1.40;99.90;;;;;;5031675;28;20033;-59
2022/01/11 02:51:57;;;;;;;44.40;21.77;;;1.40;99.90;;;;;;5031609;28;20102;-59
2022/01/11 02:54:23;;;;;;;44.42;23.17;;;1.40;99.90;;;;;;5031767;28;20133;-59
2022/01/11 02:56:50;;;;;;;45.80;22.90;;;1.40;99.90;;;;;;5031988;28;20053;-59
2022/01/11 02:59:16;;;;;;;41.53;21.38;;;1.30;99.90;;;;;;5032129;28;20104;-59
2022/01/11 03:01:42;;;;;;;41.38;21.33;;;1.40;99.90;;;;;;5031089;28;20108;-59
2022/01/11 03:04:07;;;;;;;43.63;21.60;;;1.40;99.90;;;;;;5031687;28;20025;-59
2022/01/11 03:06:33;;;;;;;36.70;21.50;;;1.40;99.90;;;;;;5031807;28;20029;-59
2022/01/11 03:08:59;;;;;;;41.38;22.40;;;1.40;99.90;;;;;;5046828;28;20029;-59
2022/01/11 03:11:25;;;;;;;42.10;22.60;;;1.40;99.90;;;;;;5046355;28;20429;-59
2022/01/11 03:13:50;;;;;;;41.67;20.65;;;1.40;99.90;;;;;;5031340;28;20451;-59
2022/01/11 03:16:17;;;;;;;40.70;21.58;;;1.40;99.90;;;;;;5030947;28;20111;-60
2022/01/11 03:18:44;;;;;;;35.97;17.90;;;1.40;99.90;;;;;;5031045;28;20387;-59
2022/01/11 03:21:11;;;;;;;39.35;22.27;;;1.40;99.90;;;;;;5031005;28;20457;-59
2022/01/11 03:23:37;;;;;;;40.75;21.05;;;1.50;99.90;;;;;;5031259;28;20025;-59
2022/01/11 03:26:03;;;;;;;41.58;21.50;;;1.40;99.90;;;;;;5030820;28;20052;-59
2022/01/11 03:28:29;;;;;;;41.40;20.95;;;1.50;99.90;;;;;;5046489;28;20433;-59
2022/01/11 03:30:56;;;;;;;37.80;21.70;;;1.50;99.90;;;;;;5030936;28;20285;-59
2022/01/11 03:33:22;;;;;;;40.80;20.40;;;1.40;99.90;;;;;;5031376;28;20022;-59
2022/01/11 03:35:48;;;;;;;37.05;19.40;;;1.40;99.90;;;;;;5030340;28;20483;-59
2022/01/11 03:38:16;;;;;;;36.80;19.20;;;1.40;99.90;;;;;;5029564;28;20400;-59
2022/01/11 03:40:42;;;;;;;43.78;21.45;;;1.40;99.90;;;;;;5029741;28;20501;-59
2022/01/11 03:43:08;;;;;;;38.97;20.15;;;1.40;99.90;;;;;;5030879;28;20029;-59
2022/01/11 03:45:35;;;;;;;40.97;22.02;;;1.50;99.90;;;;;;5030902;28;20029;-59
2022/01/11 03:48:03;;;;;;;37.10;20.08;;;1.40;99.90;;;;;;5031025;28;20064;-59
2022/01/11 03:50:31;;;;;;;38.50;20.20;;;1.40;99.90;;;;;;5030287;28;20021;-59
2022/01/11 03:53:00;;;;;;;39.72;20.15;;;1.40;99.90;;;;;;5030446;28;20458;-59
2022/01/11 03:55:46;;;;;;;39.60;19.92;;;1.40;99.90;;;;;;5030836;28;20083;-59
2022/01/11 03:58:13;;;;;;;35.90;17.92;;;1.40;99.90;;;;;;5030326;28;20399;-59
2022/01/11 04:00:40;;;;;;;39.08;20.45;;;1.40;99.90;;;;;;5045735;28;20021;-59
2022/01/11 04:03:06;;;;;;;35.72;20.08;;;1.40;99.90;;;;;;5030952;28;20021;-59
2022/01/11 04:05:32;;;;;;;39.03;20.02;;;1.40;99.90;;;;;;5030708;28;20501;-59
2022/01/11 04:07:58;;;;;;;37.05;19.50;;;1.40;99.90;;;;;;5030533;28;20021;-59
2022/01/11 04:10:23;;;;;;;40.72;19.30;;;1.40;99.90;;;;;;5030498;28;20555;-59
2022/01/11 04:12:50;;;;;;;37.70;20.13;;;1.40;99.90;;;;;;5030496;28;20018;-59
2022/01/11 04:15:16;;;;;;;37.83;19.85;;;1.40;99.90;;;;;;5030767;28;20029;-59
2022/01/11 04:17:42;;;;;;;35.85;18.85;;;1.40;99.90;;;;;;5046384;28;20022;-59
2022/01/11 04:20:08;;;;;;;36.08;20.02;;;1.40;99.90;;;;;;5030605;28;20103;-59
2022/01/11 04:22:34;;;;;;;41.08;20.48;;;1.40;99.90;;;;;;5045614;28;20033;-59
2022/01/11 04:25:00;;;;;;;36.28;18.55;;;1.30;99.90;;;;;;5030326;28;20289;-59
2022/01/11 04:27:25;;;;;;;38.40;20.20;;;1.40;99.90;;;;;;5028998;28;20037;-59
2022/01/11 04:29:51;;;;;;;40.88;21.20;;;1.30;99.90;;;;;;5030125;28;20096;-59
2022/01/11 04:32:17;;;;;;;42.40;20.55;;;1.30;99.90;;;;;;5030001;28;20030;-59
2022/01/11 04:34:42;;;;;;;38.53;20.30;;;1.30;99.90;;;;;;5030446;28;20030;-59
2022/01/11 04:37:08;;;;;;;35.65;19.58;;;1.30;99.90;;;;;;5029990;28;20026;-59
2022/01/11 04:39:34;;;;;;;37.22;18.08;;;1.30;99.90;;;;;;5030042;28;20021;-59
2022/01/11 04:41:59;;;;;;;38.92;20.50;;;1.30;99.90;;;;;;5030467;28;20047;-59
2022/01/11 04:44:25;;;;;;;39.95;19.92;;;1.30;99.90;;;;;;5029780;28;20083;-59
2022/01/11 04:46:50;;;;;;;46.67;21.52;;;1.20;99.90;;;;;;5029866;28;20033;-59
2022/01/11 04:49:16;;;;;;;43.70;21.55;;;1.30;99.90;;;;;;5033782;28;20060;-59
2022/01/11 04:51:42;;;;;;;37.58;18.73;;;1.30;99.90;;;;;;5033846;28;20560;-59
2022/01/11 04:54:08;;;;;;;39.08;21.38;;;1.20;99.90;;;;;;5034261;28;20054;-59
2022/01/11 04:56:34;;;;;;;40.03;21.52;;;1.20;99.90;;;;;;5033932;28;20696;-59
2022/01/11 04:59:00;;;;;;;44.63;21.90;;;1.10;99.90;;;;;;5033781;28;20030;-59
2022/01/11 05:01:27;;;;;;;37.83;19.90;;;1.10;99.90;;;;;;5034190;28;20018;-59
2022/01/11 05:03:53;;;;;;;42.92;21.70;;;1.10;99.90;;;;;;5034035;28;20415;-59
2022/01/11 05:06:19;;;;;;;49.63;23.88;;;1.10;99.90;;;;;;5033555;28;20025;-59
2022/01/11 05:08:45;;;;;;;45.15;22.08;;;1.00;99.90;;;;;;5033567;28;20302;-59
2022/01/11 05:11:11;;;;;;;40.60;20.25;;;1.10;99.90;;;;;;5034014;28;20028;-59
2022/01/11 05:13:37;;;;;;;44.50;22.33;;;1.00;99.90;;;;;;5049197;28;20108;-59
2022/01/11 05:16:03;;;;;;;41.50;20.98;;;1.00;99.90;;;;;;5033695;28;20082;-59
2022/01/11 05:18:30;;;;;;;43.63;21.17;;;0.90;99.90;;;;;;5048536;28;20037;-59
2022/01/11 05:20:56;;;;;;;42.60;21.35;;;0.90;99.90;;;;;;5033427;28;20030;-59
2022/01/11 05:23:21;;;;;;;44.85;22.50;;;0.90;99.90;;;;;;5048672;28;20032;-59
2022/01/11 05:25:47;;;;;;;46.00;22.90;;;0.90;99.90;;;;;;5033336;28;20091;-59
2022/01/11 05:28:13;;;;;;;45.40;22.63;;;0.90;99.90;;;;;;5048861;28;20037;-59
2022/01/11 05:30:38;;;;;;;49.38;22.48;;;0.90;99.90;;;;;;5033542;28;20025;-59
2022/01/11 05:33:04;;;;;;;51.13;23.83;;;0.90;99.90;;;;;;5048329;28;20394;-59
2022/01/11 05:35:30;;;;;;;45.45;23.27;;;0.80;99.90;;;;;;5033055;28;20502;-59
2022/01/11 05:37:56;;;;;;;48.90;23.38;;;0.90;99.90;;;;;;5032619;28;20029;-59
2022/01/11 05:40:21;;;;;;;45.08;22.63;;;0.90;99.90;;;;;;5033338;28;20060;-59
2022/01/11 05:42:49;;;;;;;50.97;22.88;;;0.90;99.90;;;;;;5034393;28;20025;-59
2022/01/11 05:45:17;;;;;;;44.42;21.58;;;1.00;99.90;;;;;;5034374;28;20057;-59
2022/01/11 05:47:43;;;;;;;45.42;22.35;;;0.90;99.90;;;;;;5032091;28;20022;-59
2022/01/11 05:50:11;;;;;;;44.78;21.23;;;0.90;99.90;;;;;;5033130;28;20037;-59
2022/01/11 05:52:42;;;;;;;42.90;21.00;;;1.00;99.90;;;;;;5033475;28;20018;-59
2022/01/11 05:55:09;;;;;;;46.03;21.88;;;1.00;99.90;;;;;;5033472;28;20104;-59
2022/01/11 05:57:35;;;;;;;48.38;23.80;;;1.10;99.90;;;;;;5032961;28;20021;-59
2022/01/11 06:00:03;;;;;;;44.28;21.38;;;1.10;99.90;;;;;;5032326;28;20036;-59
2022/01/11 06:02:28;;;;;;;46.40;21.92;;;1.10;99.90;;;;;;5031707;28;20421;-59
2022/01/11 06:04:54;;;;;;;44.42;22.52;;;1.10;99.90;;;;;;5033007;28;20105;-59
2022/01/11 06:07:20;;;;;;;45.70;22.50;;;1.10;99.90;;;;;;5032888;28;20032;-59
2022/01/11 06:09:45;;;;;;;50.00;23.55;;;1.10;99.90;;;;;;5032872;28;20033;-59
2022/01/11 06:12:11;;;;;;;40.75;20.92;;;1.20;99.90;;;;;;5033336;28;20030;-59
2022/01/11 06:14:37;;;;;;;47.10;22.75;;;1.30;99.90;;;;;;5033474;28;20036;-59
2022/01/11 06:17:03;;;;;;;46.92;22.73;;;1.20;99.90;;;;;;5032629;28;20386;-57
2022/01/11 06:19:28;;;;;;;40.80;18.42;;;1.20;99.90;;;;;;5032647;28;20032;-57
2022/01/11 06:21:54;;;;;;;49.47;23.25;;;1.30;99.90;;;;;;5032172;28;20025;-58
2022/01/11 06:24:20;;;;;;;44.10;20.95;;;1.30;99.90;;;;;;5032575;28;20030;-58
2022/01/11 06:26:45;;;;;;;41.45;21.02;;;1.30;99.90;;;;;;5032006;28;20079;-58
2022/01/11 06:29:11;;;;;;;43.85;22.05;;;1.40;99.90;;;;;;5030861;28;20021;-58
2022/01/11 06:31:36;;;;;;;46.92;22.85;;;1.40;99.90;;;;;;5032519;28;20045;-59
2022/01/11 06:34:03;;;;;;;49.25;21.95;;;1.40;99.90;;;;;;5032864;28;20032;-59
2022/01/11 06:36:29;;;;;;;45.53;22.23;;;1.40;99.90;;;;;;5032076;28;20028;-59
2022/01/11 06:38:55;;;;;;;46.88;21.98;;;1.40;99.90;;;;;;5032435;28;20026;-59
2022/01/11 06:41:21;;;;;;;46.35;21.77;;;1.40;99.90;;;;;;5032664;28;20048;-59
2022/01/11 06:43:47;;;;;;;43.70;20.77;;;1.40;99.90;;;;;;5032678;28;20486;-59
2022/01/11 06:46:13;;;;;;;45.70;22.02;;;1.30;99.90;;;;;;5016690;28;20051;-59
2022/01/11 06:48:39;;;;;;;50.55;22.77;;;1.30;99.90;;;;;;5018310;28;20549;-59
2022/01/11 06:51:05;;;;;;;50.40;22.10;;;1.30;99.90;;;;;;5036427;28;20099;-59
2022/01/11 06:53:32;;;;;;;50.72;22.98;;;1.40;99.90;;;;;;5024747;28;20494;-59
2022/01/11 06:55:58;;;;;;;50.10;23.23;;;1.30;99.90;;;;;;5026648;28;20025;-59
2022/01/11 06:58:24;;;;;;;48.65;22.75;;;1.30;99.90;;;;;;5017441;28;20372;-59
2022/01/11 07:00:50;;;;;;;53.35;23.95;;;1.30;99.90;;;;;;5025428;28;20028;-58
2022/01/11 07:03:16;;;;;;;49.05;23.45;;;1.30;99.90;;;;;;5017731;28;20022;-58
2022/01/11 07:05:42;;;;;;;51.33;23.85;;;1.30;99.90;;;;;;5016606;28;20038;-59
2022/01/11 07:08:09;;;;;;;48.15;22.27;;;1.30;99.90;;;;;;5017259;28;20514;-58
2022/01/11 07:10:34;;;;;;;51.65;23.40;;;1.30;99.90;;;;;;5022411;28;20453;-58
2022/01/11 07:13:02;;;;;;;48.95;22.73;;;1.30;99.90;;;;;;5034099;28;20048;-59
2022/01/11 07:15:27;;;;;;;50.60;22.77;;;1.30;99.90;;;;;;5022622;28;20021;-58
2022/01/11 07:17:53;;;;;;;48.53;22.00;;;1.40;99.90;;;;;;5019242;28;20355;-58
2022/01/11 07:20:19;;;;;;;48.65;22.48;;;1.40;99.90;;;;;;5012809;28;20535;-59
2022/01/11 07:22:44;;;;;;;48.28;23.10;;;1.40;99.90;;;;;;5014116;28;20394;-58
2022/01/11 07:25:10;;;;;;;47.15;22.52;;;1.40;99.90;;;;;;5017615;28;20029;-58
2022/01/11 07:27:36;;;;;;;46.88;22.85;;;1.40;99.90;;;;;;5020213;28;20042;-58
2022/01/11 07:30:04;;;;;;;49.72;22.95;;;1.50;99.90;;;;;;5016037;28;20076;-59
2022/01/11 07:32:31;;;;;;;51.13;22.52;;;1.50;99.90;;;;;;5015003;28;20487;-58
2022/01/11 07:34:58;;;;;;;46.28;22.67;;;1.60;99.90;;;;;;5017227;28;20587;-58
2022/01/11 07:37:24;;;;;;;47.88;23.45;;;1.60;99.90;;;;;;5014393;28;20127;-59
2022/01/11 07:39:50;;;;;;;55.17;24.58;;;1.50;99.90;;;;;;5016105;28;20025;-59
2022/01/11 07:42:15;;;;;;;49.05;21.45;;;1.40;99.90;;;;;;5021785;28;20070;-59
2022/01/11 07:44:43;;;;;;;53.58;25.38;;;1.40;99.90;;;;;;5019378;28;20479;-59
2022/01/11 07:47:09;;;;;;;50.92;23.00;;;1.40;99.90;;;;;;5013571;28;20042;-59
2022/01/11 07:49:35;;;;;;;53.45;24.75;;;1.50;99.90;;;;;;5016576;28;20057;-59
2022/01/11 07:52:01;;;;;;;53.22;24.15;;;1.50;99.90;;;;;;5015974;28;20517;-59
2022/01/11 07:54:27;;;;;;;54.45;24.17;;;1.40;99.90;;;;;;5017521;28;20241;-59
2022/01/11 07:56:52;;;;;;;53.83;23.50;;;1.40;99.90;;;;;;5014854;28;20051;-59
2022/01/11 07:59:19;;;;;;;58.08;24.15;;;1.40;99.90;;;;;;5015266;28;20454;-59
2022/01/11 08:01:44;;;;;;;55.85;24.48;;;1.40;99.90;;;;;;5017761;28;20030;-59
2022/01/11 08:04:10;;;;;;;61.88;26.17;;;1.50;99.90;;;;;;5017413;28;20045;-59
2022/01/11 08:06:36;;;;;;;54.67;26.50;;;1.50;99.90;;;;;;5009236;28;20434;-59
2022/01/11 08:09:02;;;;;;;56.00;25.55;;;1.50;99.90;;;;;;5033165;28;20056;-59
2022/01/11 08:11:28;;;;;;;55.15;24.88;;;1.50;99.90;;;;;;5019371;28;20042;-59
2022/01/11 08:13:54;;;;;;;61.33;25.63;;;1.60;99.90;;;;;;5032486;28;20479;-59
2022/01/11 08:16:20;;;;;;;57.30;25.45;;;1.70;99.90;;;;;;5018571;28;20030;-59
2022/01/11 08:18:46;;;;;;;57.75;25.20;;;1.80;99.90;;;;;;5015358;28;20037;-59
2022/01/11 08:21:11;;;;;;;54.13;24.95;;;1.90;99.90;;;;;;5014528;28;20038;-59
2022/01/11 08:23:37;;;;;;;49.42;22.50;;;1.90;99.90;;;;;;5021404;28;20061;-58
2022/01/11 08:26:03;;;;;;;55.90;23.83;;;1.90;99.90;;;;;;5019287;28;20175;-59
2022/01/11 08:28:29;;;;;;;54.50;23.58;;;1.90;99.90;;;;;;5020491;28;20033;-59
2022/01/11 08:30:57;;;;;;;55.78;25.75;;;1.80;99.90;;;;;;5021367;28;20033;-59
2022/01/11 08:33:23;;;;;;;51.75;23.60;;;1.90;99.90;;;;;;5019692;28;20023;-59
2022/01/11 08:35:48;;;;;;;54.95;24.50;;;2.10;99.90;;;;;;5017759;28;20515;-59
2022/01/11 08:38:14;;;;;;;54.05;24.25;;;2.00;99.90;;;;;;5022122;28;20674;-59
2022/01/11 08:40:40;;;;;;;56.15;24.42;;;2.10;99.90;;;;;;5023821;28;20441;-59
2022/01/11 08:43:05;;;;;;;54.70;24.35;;;2.20;99.90;;;;;;5020846;28;20033;-59
2022/01/11 08:45:33;;;;;;;61.38;26.42;;;2.20;99.90;;;;;;5033614;28;20498;-59
2022/01/11 08:47:59;;;;;;;57.10;24.50;;;2.10;99.90;;;;;;5015623;28;20037;-59
2022/01/11 08:50:25;;;;;;;59.88;24.88;;;2.20;99.90;;;;;;5022171;28;20044;-59
2022/01/11 08:52:51;;;;;;;51.97;24.00;;;2.30;99.90;;;;;;5021590;28;20029;-59
2022/01/11 08:55:17;;;;;;;52.33;24.30;;;2.20;99.90;;;;;;5017759;28;20045;-59
2022/01/11 08:57:44;;;;;;;50.10;22.27;;;2.10;99.90;;;;;;5019222;28;20092;-59
2022/01/11 09:00:16;;;;;;;53.33;24.42;;;2.10;99.90;;;;;;5017355;28;20029;-58
2022/01/11 09:02:46;;;;;;;;;;;2.20;99.90;;;;;;5019052;28;20034;-59
2022/01/11 09:05:12;;;;;;;54.15;22.92;;;2.40;99.90;;;;;;5029465;28;19932;-59
2022/01/11 09:07:38;;;;;;;51.75;22.70;;;2.40;99.90;;;;;;5018869;28;20032;-58
2022/01/11 09:10:05;;;;;;;50.88;23.38;;;2.50;99.90;;;;;;5019978;28;20037;-58
2022/01/11 09:12:30;;;;;;;45.65;19.13;;;2.50;99.90;;;;;;5006273;28;20080;-59
2022/01/11 09:14:56;;;;;;;49.00;23.27;;;2.70;99.90;;;;;;5011543;28;20037;-58
2022/01/11 09:17:21;;;;;;;54.00;25.15;;;2.60;99.90;;;;;;5009330;28;20032;-59
2022/01/11 09:19:47;;;;;;;51.97;24.02;;;2.70;99.90;;;;;;5012960;28;20025;-59
2022/01/11 09:22:13;;;;;;;53.38;23.92;;;2.70;99.90;;;;;;5010668;28;20030;-59
2022/01/11 09:24:38;;;;;;;50.00;23.40;;;2.80;99.90;;;;;;5014284;28;20033;-59
2022/01/11 09:27:05;;;;;;;52.88;24.30;;;2.80;99.90;;;;;;5024097;28;20376;-59
2022/01/11 09:29:33;;;;;;;56.03;23.80;;;2.60;99.90;;;;;;5013946;28;20475;-59
2022/01/11 09:32:00;;;;;;;53.05;23.98;;;2.70;99.90;;;;;;5011722;28;20057;-59
2022/01/11 09:34:26;;;;;;;57.10;23.98;;;2.60;99.90;;;;;;5018035;28;20382;-58
2022/01/11 09:36:52;;;;;;;51.28;22.85;;;2.50;99.90;;;;;;5017090;28;20025;-58
2022/01/11 09:39:18;;;;;;;55.15;23.13;;;2.60;99.90;;;;;;5024231;28;20026;-58
2022/01/11 09:41:44;;;;;;;52.58;21.33;;;2.50;99.90;;;;;;5021623;28;20560;-58
2022/01/11 09:44:11;;;;;;;61.28;25.17;;;2.50;99.90;;;;;;5018110;28;20280;-58
2022/01/11 09:46:37;;;;;;;54.63;24.63;;;2.50;99.90;;;;;;5039173;28;20434;-58
2022/01/11 09:49:03;;;;;;;53.63;23.90;;;2.50;99.90;;;;;;5021964;28;20060;-58
2022/01/11 09:51:31;;;;;;;52.47;22.27;;;2.50;99.90;;;;;;5022289;28;20025;-58
2022/01/11 09:53:57;;;;;;;49.38;22.73;;;2.60;99.90;;;;;;5024338;28;20034;-59
2022/01/11 09:56:23;;;;;;;49.30;22.83;;;2.70;99.90;;;;;;5037647;28;20033;-58
2022/01/11 09:58:49;;;;;;;48.40;21.13;;;2.80;99.90;;;;;;5018464;28;20088;-59
2022/01/11 10:01:15;;;;;;;49.60;22.50;;;2.80;99.90;;;;;;5037822;28;20642;-59
2022/01/11 10:04:06;;;;;;;54.53;23.60;;;2.80;99.90;;;;;;5013779;28;20022;-59
2022/01/11 10:06:34;;;;;;;51.10;22.08;;;2.80;99.90;;;;;;5031474;28;20026;-59
2022/01/11 10:09:20;;;;;;;49.83;22.08;;;2.80;99.90;;;;;;5035539;28;20429;-58
2022/01/11 10:11:51;;;;;;;51.78;23.00;;;2.70;99.90;;;;;;5021607;28;20521;-59
2022/01/11 10:14:34;;;;;;;50.58;22.33;;;2.70;99.90;;;;;;5004975;28;20029;-58
2022/01/11 10:17:07;;;;;;;39.20;17.52;;;2.80;99.90;;;;;;5020916;28;20402;-58
2022/01/11 10:19:34;;;;;;;51.88;21.42;;;2.80;99.90;;;;;;5020157;28;20021;-59
2022/01/11 10:22:03;;;;;;;55.53;22.33;;;2.90;99.90;;;;;;5018991;28;20485;-59
2022/01/11 10:24:32;;;;;;;46.17;20.77;;;2.90;99.90;;;;;;5018693;28;20033;-58
2022/01/11 10:27:01;;;;;;;54.42;23.40;;;2.90;99.90;;;;;;5022189;28;20041;-58
2022/01/11 10:29:38;;;;;;;52.83;22.25;;;2.90;99.90;;;;;;5019475;28;20109;-59
2022/01/11 10:32:32;;;;;;;48.10;22.08;;;2.90;99.90;;;;;;5022842;28;20401;-59
2022/01/11 10:35:19;;;;;;;50.53;22.40;;;3.00;99.90;;;;;;5019046;28;20029;-59
2022/01/11 10:37:50;;;;;;;45.80;19.90;;;3.00;99.90;;;;;;5020029;28;20037;-59
2022/01/11 10:40:32;;;;;;;46.53;20.00;;;3.10;99.90;;;;;;5018985;28;20391;-59
2022/01/11 10:43:01;;;;;;;45.33;20.27;;;3.10;99.90;;;;;;5011172;28;20022;-59
2022/01/11 10:45:35;;;;;;;43.95;20.80;;;3.10;99.90;;;;;;5017575;28;20394;-59
2022/01/11 10:48:11;;;;;;;42.35;20.02;;;3.20;99.90;;;;;;5026557;28;20021;-59
2022/01/11 10:50:44;;;;;;;45.78;19.88;;;3.30;99.90;;;;;;5020134;28;20029;-59
2022/01/11 10:53:22;;;;;;;47.35;22.05;;;3.30;99.90;;;;;;5021914;28;20407;-58
2022/01/11 10:55:53;;;;;;;46.85;20.20;;;3.40;99.90;;;;;;5018680;28;20033;-59
2022/01/11 10:58:19;;;;;;;41.60;20.27;;;3.50;99.90;;;;;;5015856;28;20299;-59
2022/01/11 11:00:50;;;;;;;43.33;20.08;;;3.60;99.90;;;;;;5016922;28;20030;-59
2022/01/11 11:03:18;;;;;;;39.08;18.15;;;3.80;99.90;;;;;;5017849;28;20032;-59
2022/01/11 11:05:52;;;;;;;42.03;20.05;;;3.80;99.90;;;;;;5017120;28;20320;-59
2022/01/11 11:08:34;;;;;;;40.75;19.23;;;3.80;99.90;;;;;;5013699;28;20561;-59
2022/01/11 11:11:05;;;;;;;40.15;20.90;;;3.70;99.90;;;;;;5022693;28;20080;-59
2022/01/11 11:13:36;;;;;;;40.72;19.55;;;3.70;99.90;;;;;;5020958;28;20064;-60
2022/01/11 11:16:18;;;;;;;42.35;21.13;;;3.70;99.90;;;;;;5012937;28;20025;-59
2022/01/11 11:18:47;;;;;;;42.13;18.98;;;3.80;99.90;;;;;;5014927;28;20084;-59
2022/01/11 11:21:16;;;;;;;42.58;20.23;;;3.80;99.90;;;;;;5013383;28;20037;-59
2022/01/11 11:23:42;;;;;;;44.88;19.17;;;3.80;99.90;;;;;;5012655;28;20105;-59
2022/01/11 11:26:08;;;;;;;48.70;21.88;;;3.90;99.90;;;;;;5008308;28;20491;-59
2022/01/11 11:28:33;;;;;;;43.10;21.48;;;3.90;99.90;;;;;;5019236;28;20044;-59
2022/01/11 11:30:59;;;;;;;41.63;20.17;;;3.90;99.90;;;;;;5016596;28;20064;-60
2022/01/11 11:33:25;;;;;;;43.08;22.08;;;4.00;99.90;;;;;;5017176;28;20036;-59
2022/01/11 11:35:51;;;;;;;44.35;22.00;;;4.10;99.90;;;;;;5012720;28;20386;-59
2022/01/11 11:38:20;;;;;;;44.80;21.38;;;4.20;99.90;;;;;;5016059;28;20033;-59
2022/01/11 11:40:52;;;;;;;41.75;21.70;;;4.20;99.90;;;;;;5012104;28;20513;-59
2022/01/11 11:43:17;;;;;;;45.58;21.60;;;4.30;99.90;;;;;;4993198;28;20122;-59
2022/01/11 11:45:44;;;;;;;38.97;19.88;;;4.20;99.90;;;;;;5016193;28;20069;-59
2022/01/11 11:48:12;;;;;;;37.88;19.25;;;4.20;99.90;;;;;;5020889;28;20117;-59
2022/01/11 11:51:02;;;;;;;41.80;20.02;;;4.30;99.90;;;;;;5014214;28;20030;-59
2022/01/11 11:53:32;;;;;;;38.13;20.00;;;4.30;99.90;;;;;;5022522;28;20495;-59
2022/01/11 11:56:25;;;;;;;38.15;20.02;;;4.40;99.90;;;;;;5021762;28;20032;-59
2022/01/11 11:58:57;;;;;;;51.42;20.08;;;4.40;99.90;;;;;;5023405;28;20026;-59
2022/01/11 12:01:44;;;;;;;36.72;20.13;;;4.40;99.90;;;;;;5018844;28;20096;-59
2022/01/11 12:04:37;;;;;;;33.40;17.70;;;4.50;99.90;;;;;;5016929;28;20028;-59
2022/01/11 12:07:21;;;;;;;;;;;4.50;99.90;;;;;;5012995;28;20026;-59
2022/01/11 12:09:51;;;;;;;38.28;18.10;;;4.50;99.90;;;;;;5016426;28;19996;-59
2022/01/11 12:12:39;;;;;;;39.15;20.92;;;4.40;99.90;;;;;;5031250;28;20043;-59
2022/01/11 12:15:31;;;;;;;35.60;18.83;;;4.20;99.90;;;;;;5015883;28;20387;-60
2022/01/11 12:17:57;;;;;;;42.78;20.98;;;4.40;99.90;;;;;;5020184;28;20483;-60
2022/01/11 12:20:40;;;;;;;44.63;22.10;;;4.30;99.90;;;;;;5020214;28;20036;-60
2022/01/11 12:23:08;;;;;;;35.88;17.85;;;4.60;99.90;;;;;;5012694;28;20516;-60
2022/01/11 12:25:38;;;;;;;34.58;16.85;;;4.90;99.90;;;;;;5016755;28;20032;-60
2022/01/11 12:28:06;;;;;;;38.05;19.30;;;5.50;99.90;;;;;;5016413;28;20045;-59
2022/01/11 12:30:32;;;;;;;35.67;18.50;;;6.30;99.90;;;;;;5015611;28;20021;-60
2022/01/11 12:33:19;;;;;;;36.65;19.58;;;7.30;99.90;;;;;;5016151;28;20437;-60
2022/01/11 12:36:02;;;;;;;33.55;18.20;;;7.50;99.90;;;;;;5018720;28;20064;-60
2022/01/11 12:38:33;;;;;;;29.98;18.02;;;8.30;99.90;;;;;;5022701;28;20049;-60
2022/01/11 12:41:29;;;;;;;29.15;17.48;;;8.50;99.90;;;;;;5021465;28;20399;-57